sensor_id;sensor_type;location;lat;lon;timestamp;temperature;humidity
14709;DHT22;7445;50.774;4.944;2022-12-18T08:40:15;-4.60;99.90
14709;DHT22;7445;50.774;4.944;2022-12-18T08:42:41;-4.50;99.90
14709;DHT22;7445;50.774;4.944;2022-12-18T08:45:25;-4.40;99.90
14709;DHT22;7445;50.774;4.944;2022-12-18T08:47:51;-4.30;99.90
14709;DHT22;7445;50.774;4.944;2022-12-18T08:50:17;-4.20;99.90
14709;DHT22;7445;50.774;4.944;2022-12-18T08:52:43;-4.10;99.90
14709;DHT22;7445;50.774;4.944;2022-12-18T08:55:09;-3.90;99.90
14709;DHT22;7445;50.774;4.944;2022-12-18T08:57:35;-3.90;99.90
14709;DHT22;7445;50.774;4.944;2022-12-18T09:00:01;-3.80;99.90
14709;DHT22;7445;50.774;4.944;2022-12-18T09:02:26;-3.80;99.90
14709;DHT22;7445;50.774;4.944;2022-12-18T09:04:52;-3.70;99.90
14709;DHT22;7445;50.774;4.944;2022-12-18T09:07:18;-3.70;99.90
14709;DHT22;7445;50.774;4.944;2022-12-18T09:09:43;-3.60;99.90
14709;DHT22;7445;50.774;4.944;2022-12-18T09:12:09;-3.50;99.90
14709;DHT22;7445;50.774;4.944;2022-12-18T09:14:35;-3.50;99.90
14709;DHT22;7445;50.774;4.944;2022-12-18T09:17:01;-3.40;99.90
14709;DHT22;7445;50.774;4.944;2022-12-18T09:19:27;-3.20;99.90
14709;DHT22;7445;50.774;4.944;2022-12-18T09:21:53;-3.20;99.90
14709;DHT22;7445;50.774;4.944;2022-12-18T09:24:18;-3.10;99.90
14709;DHT22;7445;50.774;4.944;2022-12-18T09:26:44;-3.00;99.90
14709;DHT22;7445;50.774;4.944;2022-12-18T09:29:10;-2.90;99.90
14709;DHT22;7445;50.774;4.944;2022-12-18T09:31:36;-2.70;99.90
14709;DHT22;7445;50.774;4.944;2022-12-18T09:34:03;-2.60;99.90
14709;DHT22;7445;50.774;4.944;2022-12-18T09:36:29;-2.50;99.90
14709;DHT22;7445;50.774;4.944;2022-12-18T09:38:54;-2.50;99.90
14709;DHT22;7445;50.774;4.944;2022-12-18T09:47:30;-2.30;99.90
14709;DHT22;7445;50.774;4.944;2022-12-18T09:49:33;-2.20;99.90
14709;DHT22;7445;50.774;4.944;2022-12-18T09:52:11;-2.10;99.90
14709;DHT22;7445;50.774;4.944;2022-12-18T09:54:42;-2.00;99.90
14709;DHT22;7445;50.774;4.944;2022-12-18T09:57:18;-2.00;99.90
14709;DHT22;7445;50.774;4.944;2022-12-18T10:00:33;-2.00;99.90
14709;DHT22;7445;50.774;4.944;2022-12-18T10:02:34;-1.90;99.90
14709;DHT22;7445;50.774;4.944;2022-12-18T10:05:06;-1.80;99.90
14709;DHT22;7445;50.774;4.944;2022-12-18T10:10:21;-1.60;99.90
14709;DHT22;7445;50.774;4.944;2022-12-18T10:12:54;-1.60;99.90
14709;DHT22;7445;50.774;4.944;2022-12-18T10:20:39;-1.50;99.90
14709;DHT22;7445;50.774;4.944;2022-12-18T10:23:25;-1.50;99.90
14709;DHT22;7445;50.774;4.944;2022-12-18T10:26:05;-1.40;99.90
14709;DHT22;7445;50.774;4.944;2022-12-18T10:28:33;-1.30;99.90
14709;DHT22;7445;50.774;4.944;2022-12-18T10:31:12;-1.20;99.90
14709;DHT22;7445;50.774;4.944;2022-12-18T10:33:39;-1.20;99.90
14709;DHT22;7445;50.774;4.944;2022-12-18T10:36:13;-1.20;99.90
14709;DHT22;7445;50.774;4.944;2022-12-18T10:38:39;-1.20;99.90
14709;DHT22;7445;50.774;4.944;2022-12-18T10:43:51;-1.20;99.90
14709;DHT22;7445;50.774;4.944;2022-12-18T10:46:34;-1.00;99.90
14709;DHT22;7445;50.774;4.944;2022-12-18T10:49:00;-0.90;99.90
14709;DHT22;7445;50.774;4.944;2022-12-18T10:51:32;-0.70;99.90
14709;DHT22;7445;50.774;4.944;2022-12-18T10:54:03;-0.60;99.90
14709;DHT22;7445;50.774;4.944;2022-12-18T10:56:35;-0.60;99.90
14709;DHT22;7445;50.774;4.944;2022-12-18T10:59:15;-0.60;99.90
14709;DHT22;7445;50.774;4.944;2022-12-18T11:01:55;-0.50;99.90
14709;DHT22;7445;50.774;4.944;2022-12-18T11:04:26;-0.50;99.90
14709;DHT22;7445;50.774;4.944;2022-12-18T11:09:23;-0.30;99.90
14709;DHT22;7445;50.774;4.944;2022-12-18T11:11:49;-0.20;99.90
14709;DHT22;7445;50.774;4.944;2022-12-18T11:14:24;-0.10;99.90
14709;DHT22;7445;50.774;4.944;2022-12-18T11:16:52;0.00;99.90
14709;DHT22;7445;50.774;4.944;2022-12-18T11:19:35;0.10;99.90
14709;DHT22;7445;50.774;4.944;2022-12-18T11:24:55;0.30;99.90
14709;DHT22;7445;50.774;4.944;2022-12-18T11:27:21;0.40;99.90
14709;DHT22;7445;50.774;4.944;2022-12-18T11:29:50;0.40;99.90
14709;DHT22;7445;50.774;4.944;2022-12-18T11:32:37;0.40;99.90
14709;DHT22;7445;50.774;4.944;2022-12-18T11:35:09;0.50;99.90
14709;DHT22;7445;50.774;4.944;2022-12-18T11:37:36;0.50;99.90
14709;DHT22;7445;50.774;4.944;2022-12-18T11:40:14;0.50;99.90
14709;DHT22;7445;50.774;4.944;2022-12-18T11:42:54;0.60;99.90
14709;DHT22;7445;50.774;4.944;2022-12-18T11:45:31;0.60;99.90
14709;DHT22;7445;50.774;4.944;2022-12-18T11:48:20;0.60;99.90
14709;DHT22;7445;50.774;4.944;2022-12-18T11:50:55;0.60;99.90
14709;DHT22;7445;50.774;4.944;2022-12-18T11:53:22;0.60;99.90
14709;DHT22;7445;50.774;4.944;2022-12-18T11:56:34;0.70;99.90
14709;DHT22;7445;50.774;4.944;2022-12-18T11:58:48;0.70;99.90
14709;DHT22;7445;50.774;4.944;2022-12-18T12:01:39;0.70;99.90
14709;DHT22;7445;50.774;4.944;2022-12-18T12:10:02;0.90;99.90
14709;DHT22;7445;50.774;4.944;2022-12-18T12:15:39;0.90;99.90
14709;DHT22;7445;50.774;4.944;2022-12-18T12:29:18;1.00;99.90
14709;DHT22;7445;50.774;4.944;2022-12-18T12:32:07;1.10;99.90
14709;DHT22;7445;50.774;4.944;2022-12-18T12:37:44;1.20;99.90
14709;DHT22;7445;50.774;4.944;2022-12-18T12:40:17;1.20;99.90
14709;DHT22;7445;50.774;4.944;2022-12-18T12:42:47;1.30;99.90
14709;DHT22;7445;50.774;4.944;2022-12-18T12:45:44;1.40;99.90
14709;DHT22;7445;50.774;4.944;2022-12-18T12:50:52;1.40;99.90
14709;DHT22;7445;50.774;4.944;2022-12-18T12:53:26;1.50;99.90
14709;DHT22;7445;50.774;4.944;2022-12-18T12:55:55;1.50;99.90
14709;DHT22;7445;50.774;4.944;2022-12-18T13:06:50;1.50;99.90
14709;DHT22;7445;50.774;4.944;2022-12-18T13:09:19;1.50;99.90
14709;DHT22;7445;50.774;4.944;2022-12-18T13:11:46;1.60;99.90
14709;DHT22;7445;50.774;4.944;2022-12-18T13:14:35;1.50;99.90
14709;DHT22;7445;50.774;4.944;2022-12-18T13:17:27;1.60;99.90
14709;DHT22;7445;50.774;4.944;2022-12-18T13:22:38;1.60;99.90
14709;DHT22;7445;50.774;4.944;2022-12-18T13:25:36;1.60;99.90
14709;DHT22;7445;50.774;4.944;2022-12-18T13:28:16;1.60;99.90
14709;DHT22;7445;50.774;4.944;2022-12-18T13:36:26;1.60;99.90
14709;DHT22;7445;50.774;4.944;2022-12-18T13:39:35;1.60;99.90
14709;DHT22;7445;50.774;4.944;2022-12-18T13:44:36;1.60;99.90
14709;DHT22;7445;50.774;4.944;2022-12-18T13:47:05;1.50;99.90
14709;DHT22;7445;50.774;4.944;2022-12-18T13:49:49;1.60;99.90
14709;DHT22;7445;50.774;4.944;2022-12-18T13:52:21;1.50;99.90
14709;DHT22;7445;50.774;4.944;2022-12-18T13:54:57;1.50;99.90
14709;DHT22;7445;50.774;4.944;2022-12-18T13:57:30;1.50;99.90
14709;DHT22;7445;50.774;4.944;2022-12-18T13:59:57;1.50;99.90
14709;DHT22;7445;50.774;4.944;2022-12-18T14:02:28;1.40;99.90
14709;DHT22;7445;50.774;4.944;2022-12-18T14:04:54;1.40;99.90
14709;DHT22;7445;50.774;4.944;2022-12-18T14:07:23;1.40;99.90
14709;DHT22;7445;50.774;4.944;2022-12-18T14:09:51;1.40;99.90
14709;DHT22;7445;50.774;4.944;2022-12-18T14:12:24;1.40;99.90
14709;DHT22;7445;50.774;4.944;2022-12-18T14:15:23;1.40;99.90
14709;DHT22;7445;50.774;4.944;2022-12-18T14:18:29;1.40;99.90
14709;DHT22;7445;50.774;4.944;2022-12-18T14:20:58;1.40;99.90
14709;DHT22;7445;50.774;4.944;2022-12-18T14:23:44;1.40;99.90
14709;DHT22;7445;50.774;4.944;2022-12-18T14:26:28;1.30;99.90
14709;DHT22;7445;50.774;4.944;2022-12-18T14:28:59;1.30;99.90
14709;DHT22;7445;50.774;4.944;2022-12-18T14:31:30;1.30;99.90
14709;DHT22;7445;50.774;4.944;2022-12-18T14:33:57;1.30;99.90
14709;DHT22;7445;50.774;4.944;2022-12-18T14:36:25;1.20;99.90
14709;DHT22;7445;50.774;4.944;2022-12-18T14:38:53;1.20;99.90
14709;DHT22;7445;50.774;4.944;2022-12-18T14:41:21;1.20;99.90
14709;DHT22;7445;50.774;4.944;2022-12-18T14:43:49;1.10;99.90
14709;DHT22;7445;50.774;4.944;2022-12-18T14:46:38;1.20;99.90
14709;DHT22;7445;50.774;4.944;2022-12-18T14:51:56;1.10;99.90
14709;DHT22;7445;50.774;4.944;2022-12-18T14:54:23;1.10;99.90
14709;DHT22;7445;50.774;4.944;2022-12-18T14:56:54;1.10;99.90
14709;DHT22;7445;50.774;4.944;2022-12-18T14:59:26;1.10;99.90
14709;DHT22;7445;50.774;4.944;2022-12-18T15:02:08;1.00;99.90
14709;DHT22;7445;50.774;4.944;2022-12-18T15:04:38;1.00;99.90
14709;DHT22;7445;50.774;4.944;2022-12-18T15:07:20;1.00;99.90
14709;DHT22;7445;50.774;4.944;2022-12-18T15:12:45;1.00;99.90
14709;DHT22;7445;50.774;4.944;2022-12-18T15:18:28;0.90;99.90
14709;DHT22;7445;50.774;4.944;2022-12-18T15:21:07;0.90;99.90
14709;DHT22;7445;50.774;4.944;2022-12-18T15:26:10;0.90;99.90
14709;DHT22;7445;50.774;4.944;2022-12-18T15:28:39;0.90;99.90
14709;DHT22;7445;50.774;4.944;2022-12-18T15:34:08;0.90;99.90
14709;DHT22;7445;50.774;4.944;2022-12-18T15:37:10;0.90;99.90
14709;DHT22;7445;50.774;4.944;2022-12-18T15:39:35;0.90;99.90
14709;DHT22;7445;50.774;4.944;2022-12-18T15:42:07;0.90;99.90
14709;DHT22;7445;50.774;4.944;2022-12-18T15:44:51;0.90;99.90
14709;DHT22;7445;50.774;4.944;2022-12-18T15:47:21;0.90;99.90
14709;DHT22;7445;50.774;4.944;2022-12-18T15:49:48;0.80;99.90
14709;DHT22;7445;50.774;4.944;2022-12-18T15:52:14;0.80;99.90
14709;DHT22;7445;50.774;4.944;2022-12-18T15:54:53;0.80;99.90
14709;DHT22;7445;50.774;4.944;2022-12-18T16:02:50;0.70;99.90
14709;DHT22;7445;50.774;4.944;2022-12-18T16:05:17;0.80;99.90
14709;DHT22;7445;50.774;4.944;2022-12-18T16:07:44;0.80;99.90
14709;DHT22;7445;50.774;4.944;2022-12-18T16:10:16;0.90;99.90
14709;DHT22;7445;50.774;4.944;2022-12-18T16:12:52;0.90;99.90
14709;DHT22;7445;50.774;4.944;2022-12-18T16:15:41;0.90;99.90
14709;DHT22;7445;50.774;4.944;2022-12-18T16:19:22;1.00;99.90
14709;DHT22;7445;50.774;4.944;2022-12-18T16:22:52;0.90;99.90
14709;DHT22;7445;50.774;4.944;2022-12-18T17:05:32;1.10;99.90
14709;DHT22;7445;50.774;4.944;2022-12-18T17:08:22;1.10;99.90
14709;DHT22;7445;50.774;4.944;2022-12-18T17:11:16;1.10;99.90
14709;DHT22;7445;50.774;4.944;2022-12-18T17:13:52;1.10;99.90
14709;DHT22;7445;50.774;4.944;2022-12-18T17:17:01;1.00;99.90
14709;DHT22;7445;50.774;4.944;2022-12-18T17:19:57;1.10;99.90
14709;DHT22;7445;50.774;4.944;2022-12-18T17:22:49;1.10;99.90
14709;DHT22;7445;50.774;4.944;2022-12-18T17:25:17;1.10;99.90
14709;DHT22;7445;50.774;4.944;2022-12-18T17:27:49;1.10;99.90
14709;DHT22;7445;50.774;4.944;2022-12-18T17:30:57;1.10;99.90
14709;DHT22;7445;50.774;4.944;2022-12-18T17:33:42;1.10;99.90
14709;DHT22;7445;50.774;4.944;2022-12-18T17:37:04;1.10;99.90
14709;DHT22;7445;50.774;4.944;2022-12-18T17:40:42;1.20;99.90
14709;DHT22;7445;50.774;4.944;2022-12-18T17:43:14;1.20;99.90
14709;DHT22;7445;50.774;4.944;2022-12-18T17:46:11;1.30;99.90
14709;DHT22;7445;50.774;4.944;2022-12-18T17:49:30;1.30;99.90
14709;DHT22;7445;50.774;4.944;2022-12-18T17:51:59;1.20;99.90
14709;DHT22;7445;50.774;4.944;2022-12-18T17:54:47;1.20;99.90
14709;DHT22;7445;50.774;4.944;2022-12-18T18:21:11;1.40;99.90
14709;DHT22;7445;50.774;4.944;2022-12-18T18:26:55;1.40;99.90
14709;DHT22;7445;50.774;4.944;2022-12-18T18:29:41;1.40;99.90
14709;DHT22;7445;50.774;4.944;2022-12-18T18:32:30;1.50;99.90
14709;DHT22;7445;50.774;4.944;2022-12-18T18:35:16;1.40;99.90
14709;DHT22;7445;50.774;4.944;2022-12-18T18:37:51;1.40;99.90
14709;DHT22;7445;50.774;4.944;2022-12-18T18:40:24;1.40;99.90
14709;DHT22;7445;50.774;4.944;2022-12-18T18:43:09;1.40;99.90
14709;DHT22;7445;50.774;4.944;2022-12-18T18:45:38;1.40;99.90
14709;DHT22;7445;50.774;4.944;2022-12-18T18:48:34;1.40;99.90
14709;DHT22;7445;50.774;4.944;2022-12-18T18:51:14;1.40;99.90
14709;DHT22;7445;50.774;4.944;2022-12-18T18:53:52;1.40;99.90
14709;DHT22;7445;50.774;4.944;2022-12-18T18:56:22;1.50;99.90
14709;DHT22;7445;50.774;4.944;2022-12-18T18:58:50;1.50;99.90
14709;DHT22;7445;50.774;4.944;2022-12-18T19:01:37;1.50;99.90
14709;DHT22;7445;50.774;4.944;2022-12-18T19:04:16;1.50;99.90
14709;DHT22;7445;50.774;4.944;2022-12-18T19:06:41;1.60;99.90
14709;DHT22;7445;50.774;4.944;2022-12-18T19:09:28;1.50;99.90
14709;DHT22;7445;50.774;4.944;2022-12-18T19:12:56;1.50;99.90
14709;DHT22;7445;50.774;4.944;2022-12-18T19:16:36;1.50;99.90
14709;DHT22;7445;50.774;4.944;2022-12-18T19:20:03;1.50;99.90
14709;DHT22;7445;50.774;4.944;2022-12-18T19:23:14;1.50;99.90
14709;DHT22;7445;50.774;4.944;2022-12-18T19:26:06;1.50;99.90
14709;DHT22;7445;50.774;4.944;2022-12-18T19:29:11;1.40;99.90
14709;DHT22;7445;50.774;4.944;2022-12-18T19:32:06;1.50;99.90
14709;DHT22;7445;50.774;4.944;2022-12-18T19:35:20;1.50;99.90
14709;DHT22;7445;50.774;4.944;2022-12-18T19:39:01;1.50;99.90
14709;DHT22;7445;50.774;4.944;2022-12-18T19:41:50;1.60;99.90
14709;DHT22;7445;50.774;4.944;2022-12-18T19:45:11;1.50;99.90
14709;DHT22;7445;50.774;4.944;2022-12-18T19:48:14;1.60;99.90
14709;DHT22;7445;50.774;4.944;2022-12-18T19:51:07;1.60;99.90
14709;DHT22;7445;50.774;4.944;2022-12-18T19:53:37;1.60;99.90
14709;DHT22;7445;50.774;4.944;2022-12-18T19:56:21;1.70;99.90
14709;DHT22;7445;50.774;4.944;2022-12-18T19:58:55;1.70;99.90
14709;DHT22;7445;50.774;4.944;2022-12-18T20:01:25;1.70;99.90
14709;DHT22;7445;50.774;4.944;2022-12-18T20:03:54;1.70;99.90
14709;DHT22;7445;50.774;4.944;2022-12-18T20:06:23;1.70;99.90
14709;DHT22;7445;50.774;4.944;2022-12-18T20:08:58;1.80;99.90
14709;DHT22;7445;50.774;4.944;2022-12-18T20:11:25;1.70;99.90
14709;DHT22;7445;50.774;4.944;2022-12-18T20:13:57;1.70;99.90
14709;DHT22;7445;50.774;4.944;2022-12-18T20:16:22;1.80;99.90
14709;DHT22;7445;50.774;4.944;2022-12-18T20:18:50;1.80;99.90
14709;DHT22;7445;50.774;4.944;2022-12-18T20:21:17;1.80;99.90
14709;DHT22;7445;50.774;4.944;2022-12-18T20:24:14;1.80;99.90
14709;DHT22;7445;50.774;4.944;2022-12-18T20:26:58;1.80;99.90
14709;DHT22;7445;50.774;4.944;2022-12-18T20:29:24;1.80;99.90
14709;DHT22;7445;50.774;4.944;2022-12-18T20:31:51;1.70;99.90
14709;DHT22;7445;50.774;4.944;2022-12-18T20:34:23;1.80;99.90
14709;DHT22;7445;50.774;4.944;2022-12-18T20:36:51;1.80;99.90
14709;DHT22;7445;50.774;4.944;2022-12-18T20:39:23;1.80;99.90
14709;DHT22;7445;50.774;4.944;2022-12-18T20:42:17;1.80;99.90
14709;DHT22;7445;50.774;4.944;2022-12-18T20:45:15;1.80;99.90
14709;DHT22;7445;50.774;4.944;2022-12-18T20:48:29;1.80;99.90
14709;DHT22;7445;50.774;4.944;2022-12-18T20:51:36;1.90;99.90
14709;DHT22;7445;50.774;4.944;2022-12-18T20:54:07;1.80;99.90
14709;DHT22;7445;50.774;4.944;2022-12-18T20:56:53;1.90;99.90
14709;DHT22;7445;50.774;4.944;2022-12-18T20:59:58;1.90;99.90
14709;DHT22;7445;50.774;4.944;2022-12-18T21:03:23;1.90;99.90
14709;DHT22;7445;50.774;4.944;2022-12-18T21:06:42;1.90;99.90
14709;DHT22;7445;50.774;4.944;2022-12-18T21:09:28;1.90;99.90
14709;DHT22;7445;50.774;4.944;2022-12-18T21:12:32;2.00;99.90
14709;DHT22;7445;50.774;4.944;2022-12-18T21:15:12;2.00;99.90
14709;DHT22;7445;50.774;4.944;2022-12-18T21:17:47;2.00;99.90
14709;DHT22;7445;50.774;4.944;2022-12-18T21:20:56;2.00;99.90
14709;DHT22;7445;50.774;4.944;2022-12-18T21:23:41;2.00;99.90
14709;DHT22;7445;50.774;4.944;2022-12-18T21:26:52;2.10;99.90
14709;DHT22;7445;50.774;4.944;2022-12-18T21:29:30;2.20;99.90
14709;DHT22;7445;50.774;4.944;2022-12-18T21:32:19;2.20;99.90
14709;DHT22;7445;50.774;4.944;2022-12-18T21:35:37;2.20;99.90
14709;DHT22;7445;50.774;4.944;2022-12-18T21:38:12;2.20;99.90
14709;DHT22;7445;50.774;4.944;2022-12-18T21:41:21;2.20;99.90
14709;DHT22;7445;50.774;4.944;2022-12-18T21:44:28;2.20;99.90
14709;DHT22;7445;50.774;4.944;2022-12-18T21:47:39;2.30;99.90
14709;DHT22;7445;50.774;4.944;2022-12-18T21:50:25;2.30;99.90
14709;DHT22;7445;50.774;4.944;2022-12-18T21:52:51;2.30;99.90
14709;DHT22;7445;50.774;4.944;2022-12-18T21:55:24;2.30;99.90
14709;DHT22;7445;50.774;4.944;2022-12-18T21:57:57;2.30;99.90
14709;DHT22;7445;50.774;4.944;2022-12-18T22:00:32;2.40;99.90
14709;DHT22;7445;50.774;4.944;2022-12-18T22:03:00;2.40;99.90
14709;DHT22;7445;50.774;4.944;2022-12-18T22:05:26;2.40;99.90
14709;DHT22;7445;50.774;4.944;2022-12-18T22:08:13;2.40;99.90
14709;DHT22;7445;50.774;4.944;2022-12-18T22:10:43;2.40;99.90
